HBZHY VNLK-VNLK
Flight info
| Callsign | HBZHY |
|---|---|
| Flight time | 0h 52m |
| Altitude | 29000 |
| Route | DCT MOUNT EVEREST |
| Aircraft | AS50/L-DGOV/C |
Departure
| Time | 2026-03-25 14:47 |
|---|---|
| Airport | Tenzing-Hillary Airport (VNLK) |
Arrival
| Time | 2026-03-25 15:39 |
|---|---|
| Airport | Tenzing-Hillary Airport (VNLK) |
| Time | Latitude | Longitude | Altitude | Speed | Heading |
|---|---|---|---|---|---|
| 2026-03-25 14:40 | 27.68776 | 86.73068 | 9411 ft | 0 kts | 59° |
| 2026-03-25 14:46 | 27.68768 | 86.73066 | 9550 ft | 5 kts | 24° |
| 2026-03-25 14:46 | 27.68953 | 86.72857 | 9850 ft | 74 kts | 323° |
| 2026-03-25 14:46 | 27.69428 | 86.72313 | 9740 ft | 125 kts | 309° |
| 2026-03-25 14:47 | 27.69879 | 86.71422 | 9851 ft | 131 kts | 297° |
| 2026-03-25 14:47 | 27.70376 | 86.70656 | 10249 ft | 110 kts | 318° |
| 2026-03-25 14:47 | 27.71108 | 86.70537 | 10455 ft | 117 kts | 14° |
| 2026-03-25 14:47 | 27.71847 | 86.70898 | 10709 ft | 113 kts | 30° |
| 2026-03-25 14:48 | 27.72457 | 86.71437 | 11047 ft | 109 kts | 41° |
| 2026-03-25 14:48 | 27.73035 | 86.71957 | 11418 ft | 105 kts | 39° |
| 2026-03-25 14:48 | 27.73592 | 86.72431 | 11856 ft | 98 kts | 36° |
| 2026-03-25 14:48 | 27.74131 | 86.72901 | 12230 ft | 92 kts | 37° |
| 2026-03-25 14:49 | 27.74674 | 86.73195 | 12645 ft | 85 kts | 19° |
| 2026-03-25 14:49 | 27.75258 | 86.73291 | 12932 ft | 93 kts | 6° |
| 2026-03-25 14:49 | 27.75916 | 86.73437 | 13142 ft | 102 kts | 10° |
| 2026-03-25 14:49 | 27.76378 | 86.73478 | 13236 ft | 110 kts | 2° |
| 2026-03-25 14:54 | 27.76966 | 86.73504 | 13337 ft | 118 kts | 3° |
| 2026-03-25 14:54 | 27.77810 | 86.73561 | 13427 ft | 124 kts | 4° |
| 2026-03-25 14:54 | 27.78662 | 86.73520 | 13641 ft | 118 kts | 352° |
| 2026-03-25 14:55 | 27.79428 | 86.73541 | 13982 ft | 112 kts | 12° |
| 2026-03-25 14:55 | 27.80030 | 86.74061 | 14090 ft | 120 kts | 43° |
| 2026-03-25 14:55 | 27.80857 | 86.74674 | 13777 ft | 147 kts | 26° |
| 2026-03-25 14:55 | 27.81767 | 86.75187 | 13846 ft | 145 kts | 30° |
| 2026-03-25 14:56 | 27.82469 | 86.75910 | 14161 ft | 124 kts | 49° |
| 2026-03-25 14:56 | 27.82503 | 86.75958 | 14199 ft | 121 kts | 49° |
| 2026-03-25 14:56 | 27.82758 | 86.76420 | 14573 ft | 100 kts | 57° |
| 2026-03-25 14:56 | 27.83117 | 86.77023 | 14991 ft | 84 kts | 60° |
| 2026-03-25 14:57 | 27.83372 | 86.77610 | 15361 ft | 82 kts | 57° |
| 2026-03-25 14:57 | 27.83656 | 86.78194 | 15675 ft | 86 kts | 62° |
| 2026-03-25 14:57 | 27.83893 | 86.78799 | 16042 ft | 80 kts | 56° |
| 2026-03-25 14:57 | 27.84163 | 86.79360 | 16319 ft | 88 kts | 63° |
| 2026-03-25 14:58 | 27.84396 | 86.79926 | 16740 ft | 72 kts | 43° |
| 2026-03-25 14:58 | 27.84746 | 86.80430 | 17004 ft | 86 kts | 43° |
| 2026-03-25 14:58 | 27.85210 | 86.81012 | 17115 ft | 118 kts | 35° |
| 2026-03-25 14:58 | 27.85879 | 86.81738 | 17058 ft | 148 kts | 44° |
| 2026-03-25 14:59 | 27.86554 | 86.82635 | 17239 ft | 148 kts | 48° |
| 2026-03-25 14:59 | 27.87049 | 86.83667 | 17534 ft | 150 kts | 59° |
| 2026-03-25 14:59 | 27.87558 | 86.84687 | 17783 ft | 152 kts | 53° |
| 2026-03-25 14:59 | 27.88055 | 86.85749 | 17950 ft | 152 kts | 64° |
| 2026-03-25 15:00 | 27.88320 | 86.86851 | 18301 ft | 138 kts | 71° |
| 2026-03-25 15:00 | 27.88550 | 86.87885 | 18624 ft | 134 kts | 67° |
| 2026-03-25 15:00 | 27.88876 | 86.88910 | 18793 ft | 142 kts | 61° |
| 2026-03-25 15:00 | 27.89190 | 86.89983 | 18988 ft | 147 kts | 76° |
| 2026-03-25 15:01 | 27.89223 | 86.91102 | 19282 ft | 138 kts | 82° |
| 2026-03-25 15:01 | 27.89318 | 86.92111 | 19720 ft | 120 kts | 65° |
| 2026-03-25 15:01 | 27.89562 | 86.93103 | 19844 ft | 143 kts | 73° |
| 2026-03-25 15:01 | 27.89530 | 86.94250 | 20077 ft | 143 kts | 90° |
| 2026-03-25 15:02 | 27.89534 | 86.95316 | 20498 ft | 130 kts | 73° |
| 2026-03-25 15:02 | 27.89875 | 86.96170 | 20854 ft | 114 kts | 27° |
| 2026-03-25 15:02 | 27.90613 | 86.96304 | 21141 ft | 107 kts | 335° |
| 2026-03-25 15:02 | 27.90907 | 86.95566 | 21130 ft | 134 kts | 266° |
| 2026-03-25 15:03 | 27.90940 | 86.94493 | 21175 ft | 135 kts | 287° |
| 2026-03-25 15:03 | 27.91412 | 86.93651 | 21366 ft | 119 kts | 309° |
| 2026-03-25 15:03 | 27.91997 | 86.93115 | 21597 ft | 102 kts | 317° |
| 2026-03-25 15:03 | 27.92562 | 86.92740 | 22212 ft | 85 kts | 317° |
| 2026-03-25 15:04 | 27.93046 | 86.92434 | 22702 ft | 76 kts | 318° |
| 2026-03-25 15:04 | 27.93383 | 86.92034 | 23064 ft | 67 kts | 297° |
| 2026-03-25 15:04 | 27.93747 | 86.91663 | 23332 ft | 74 kts | 316° |
| 2026-03-25 15:04 | 27.94194 | 86.91379 | 23543 ft | 71 kts | 310° |
| 2026-03-25 15:05 | 27.94580 | 86.91103 | 23792 ft | 60 kts | 314° |
| 2026-03-25 15:05 | 27.94918 | 86.90860 | 23935 ft | 57 kts | 309° |
| 2026-03-25 15:05 | 27.95107 | 86.90647 | 23964 ft | 61 kts | 300° |
| 2026-03-25 15:07 | 27.95256 | 86.90524 | 24007 ft | 51 kts | 313° |
| 2026-03-25 15:07 | 27.95468 | 86.90323 | 24059 ft | 42 kts | 281° |
| 2026-03-25 15:08 | 27.95486 | 86.90205 | 24001 ft | 48 kts | 276° |
| 2026-03-25 15:10 | 27.95487 | 86.90187 | 23999 ft | 45 kts | 274° |
| 2026-03-25 15:10 | 27.95529 | 86.89935 | 24149 ft | 34 kts | 291° |
| 2026-03-25 15:11 | 27.95597 | 86.89701 | 24527 ft | 40 kts | 298° |
| 2026-03-25 15:11 | 27.95875 | 86.89436 | 24709 ft | 67 kts | 319° |
| 2026-03-25 15:11 | 27.96375 | 86.89528 | 24964 ft | 87 kts | 4° |
| 2026-03-25 15:11 | 27.96643 | 86.90296 | 25118 ft | 127 kts | 81° |
| 2026-03-25 15:12 | 27.96397 | 86.91274 | 25433 ft | 126 kts | 109° |
| 2026-03-25 15:12 | 27.96307 | 86.92154 | 26001 ft | 112 kts | 63° |
| 2026-03-25 15:12 | 27.96713 | 86.92927 | 26485 ft | 116 kts | 27° |
| 2026-03-25 15:12 | 27.97334 | 86.93246 | 26938 ft | 82 kts | 336° |
| 2026-03-25 15:13 | 27.97771 | 86.93024 | 26987 ft | 64 kts | 300° |
| 2026-03-25 15:13 | 27.97961 | 86.92502 | 26822 ft | 86 kts | 284° |
| 2026-03-25 15:13 | 27.98294 | 86.91901 | 27037 ft | 89 kts | 302° |
| 2026-03-25 15:13 | 27.98780 | 86.91399 | 27258 ft | 101 kts | 324° |
| 2026-03-25 15:14 | 27.99491 | 86.91719 | 27469 ft | 146 kts | 43° |
| 2026-03-25 15:14 | 27.99578 | 86.92784 | 27882 ft | 121 kts | 125° |
| 2026-03-25 15:14 | 27.99046 | 86.93105 | 28188 ft | 67 kts | 202° |
| 2026-03-25 15:14 | 27.98532 | 86.93529 | 27752 ft | 110 kts | 156° |
| 2026-03-25 15:15 | 27.97940 | 86.93804 | 27628 ft | 73 kts | 196° |
| 2026-03-25 15:15 | 27.97548 | 86.93674 | 27406 ft | 59 kts | 234° |
| 2026-03-25 15:15 | 27.97142 | 86.93168 | 26626 ft | 108 kts | 262° |
| 2026-03-25 15:15 | 27.97194 | 86.92293 | 26330 ft | 119 kts | 289° |
| 2026-03-25 15:16 | 27.97488 | 86.91374 | 26112 ft | 124 kts | 294° |
| 2026-03-25 15:16 | 27.97837 | 86.90505 | 25952 ft | 118 kts | 294° |
| 2026-03-25 15:16 | 27.98182 | 86.89694 | 25807 ft | 109 kts | 294° |
| 2026-03-25 15:16 | 27.98474 | 86.88926 | 25608 ft | 103 kts | 293° |
| 2026-03-25 15:17 | 27.98716 | 86.88203 | 25496 ft | 97 kts | 289° |
| 2026-03-25 15:17 | 27.98925 | 86.87476 | 25333 ft | 97 kts | 292° |
| 2026-03-25 15:17 | 27.99229 | 86.86805 | 25153 ft | 94 kts | 295° |
| 2026-03-25 15:17 | 27.99537 | 86.86159 | 25012 ft | 97 kts | 296° |
| 2026-03-25 15:18 | 27.99797 | 86.85494 | 24939 ft | 89 kts | 284° |
| 2026-03-25 15:18 | 27.99761 | 86.84793 | 24797 ft | 92 kts | 258° |
| 2026-03-25 15:18 | 27.99229 | 86.84292 | 24623 ft | 116 kts | 215° |
| 2026-03-25 15:18 | 27.98335 | 86.84281 | 24384 ft | 143 kts | 186° |
| 2026-03-25 15:19 | 27.97308 | 86.84464 | 24110 ft | 155 kts | 182° |
| 2026-03-25 15:19 | 27.96242 | 86.84731 | 23949 ft | 159 kts | 178° |
| 2026-03-25 15:19 | 27.95158 | 86.85080 | 23760 ft | 166 kts | 170° |
| 2026-03-25 15:19 | 27.94070 | 86.85577 | 23494 ft | 169 kts | 168° |
| 2026-03-25 15:20 | 27.92984 | 86.86119 | 23215 ft | 170 kts | 165° |
| 2026-03-25 15:20 | 27.92794 | 86.86208 | 23167 ft | 169 kts | 168° |
| 2026-03-25 15:20 | 27.91790 | 86.86498 | 23022 ft | 154 kts | 179° |
| 2026-03-25 15:21 | 27.90743 | 86.86748 | 22807 ft | 152 kts | 179° |
| 2026-03-25 15:21 | 27.89721 | 86.86965 | 22649 ft | 147 kts | 184° |
| 2026-03-25 15:21 | 27.88714 | 86.87077 | 22519 ft | 142 kts | 188° |
| 2026-03-25 15:21 | 27.87712 | 86.87103 | 22226 ft | 146 kts | 194° |
| 2026-03-25 15:22 | 27.86685 | 86.87001 | 21855 ft | 149 kts | 197° |
| 2026-03-25 15:22 | 27.85728 | 86.86624 | 21471 ft | 139 kts | 233° |
| 2026-03-25 15:22 | 27.85506 | 86.85686 | 21050 ft | 124 kts | 286° |
| 2026-03-25 15:22 | 27.85869 | 86.84843 | 20965 ft | 115 kts | 304° |
| 2026-03-25 15:23 | 27.86320 | 86.84118 | 20888 ft | 114 kts | 303° |
| 2026-03-25 15:23 | 27.86812 | 86.83416 | 20783 ft | 115 kts | 305° |
| 2026-03-25 15:23 | 27.87275 | 86.82639 | 20559 ft | 124 kts | 304° |
| 2026-03-25 15:23 | 27.87755 | 86.81845 | 20429 ft | 123 kts | 302° |
| 2026-03-25 15:24 | 27.88157 | 86.80980 | 20267 ft | 124 kts | 291° |
| 2026-03-25 15:24 | 27.88439 | 86.80054 | 20119 ft | 124 kts | 287° |
| 2026-03-25 15:24 | 27.88513 | 86.79075 | 19969 ft | 125 kts | 276° |
| 2026-03-25 15:24 | 27.88657 | 86.78133 | 19863 ft | 118 kts | 284° |
| 2026-03-25 15:25 | 27.88829 | 86.77245 | 19714 ft | 118 kts | 282° |
| 2026-03-25 15:25 | 27.88847 | 86.76298 | 19577 ft | 125 kts | 266° |
| 2026-03-25 15:25 | 27.88561 | 86.75373 | 19470 ft | 129 kts | 239° |
| 2026-03-25 15:25 | 27.87855 | 86.74650 | 19188 ft | 148 kts | 221° |
| 2026-03-25 15:26 | 27.87015 | 86.73912 | 18902 ft | 154 kts | 219° |
| 2026-03-25 15:26 | 27.85120 | 86.74093 | 18652 ft | 143 kts | 121° |
| 2026-03-25 15:26 | 27.85024 | 86.75153 | 18522 ft | 138 kts | 72° |
| 2026-03-25 15:27 | 27.85375 | 86.76174 | 18372 ft | 139 kts | 66° |
| 2026-03-25 15:27 | 27.85743 | 86.77191 | 18209 ft | 142 kts | 68° |
| 2026-03-25 15:27 | 27.86154 | 86.78215 | 18044 ft | 144 kts | 55° |
| 2026-03-25 15:27 | 27.86739 | 86.79184 | 17718 ft | 153 kts | 64° |
| 2026-03-25 15:28 | 27.86792 | 86.80348 | 17438 ft | 154 kts | 107° |
| 2026-03-25 15:28 | 27.86103 | 86.81152 | 17277 ft | 147 kts | 171° |
| 2026-03-25 15:28 | 27.85252 | 86.80618 | 16885 ft | 148 kts | 237° |
| 2026-03-25 15:28 | 27.84750 | 86.79613 | 16648 ft | 150 kts | 242° |
| 2026-03-25 15:29 | 27.84266 | 86.78551 | 16391 ft | 155 kts | 249° |
| 2026-03-25 15:29 | 27.83843 | 86.77434 | 16166 ft | 156 kts | 246° |
| 2026-03-25 15:29 | 27.83304 | 86.76362 | 15918 ft | 158 kts | 235° |
| 2026-03-25 15:29 | 27.82737 | 86.75271 | 15569 ft | 164 kts | 245° |
| 2026-03-25 15:30 | 27.82119 | 86.74226 | 15314 ft | 163 kts | 231° |
| 2026-03-25 15:30 | 27.81385 | 86.73236 | 15031 ft | 164 kts | 231° |
| 2026-03-25 15:30 | 27.80762 | 86.72162 | 14771 ft | 164 kts | 249° |
| 2026-03-25 15:30 | 27.80542 | 86.70940 | 14593 ft | 156 kts | 280° |
| 2026-03-25 15:31 | 27.81120 | 86.70019 | 14547 ft | 141 kts | 325° |
| 2026-03-25 15:31 | 27.81693 | 86.69701 | 14515 ft | 137 kts | 339° |
| 2026-03-25 15:31 | 27.82556 | 86.69286 | 14496 ft | 126 kts | 328° |
| 2026-03-25 15:31 | 27.83022 | 86.68518 | 14465 ft | 128 kts | 286° |
| 2026-03-25 15:32 | 27.83118 | 86.67041 | 13948 ft | 154 kts | 275° |
| 2026-03-25 15:32 | 27.82865 | 86.65970 | 13884 ft | 139 kts | 214° |
| 2026-03-25 15:32 | 27.82225 | 86.65947 | 13558 ft | 150 kts | 149° |
| 2026-03-25 15:32 | 27.81653 | 86.67035 | 12808 ft | 176 kts | 106° |
| 2026-03-25 15:33 | 27.81099 | 86.68231 | 12491 ft | 171 kts | 129° |
| 2026-03-25 15:33 | 27.80368 | 86.69210 | 12383 ft | 160 kts | 132° |
| 2026-03-25 15:33 | 27.79731 | 86.70183 | 12284 ft | 152 kts | 122° |
| 2026-03-25 15:33 | 27.78987 | 86.70973 | 12278 ft | 139 kts | 146° |
| 2026-03-25 15:34 | 27.78127 | 86.71487 | 12084 ft | 148 kts | 164° |
| 2026-03-25 15:34 | 27.77100 | 86.71377 | 11889 ft | 149 kts | 193° |
| 2026-03-25 15:34 | 27.76081 | 86.71116 | 11782 ft | 148 kts | 194° |
| 2026-03-25 15:34 | 27.75112 | 86.70757 | 11746 ft | 142 kts | 203° |
| 2026-03-25 15:35 | 27.74197 | 86.70401 | 11691 ft | 140 kts | 193° |
| 2026-03-25 15:35 | 27.73191 | 86.70362 | 11472 ft | 148 kts | 178° |
| 2026-03-25 15:35 | 27.72192 | 86.70663 | 11122 ft | 157 kts | 155° |
| 2026-03-25 15:35 | 27.71237 | 86.71233 | 10958 ft | 152 kts | 143° |
| 2026-03-25 15:36 | 27.70372 | 86.71924 | 10840 ft | 149 kts | 144° |
| 2026-03-25 15:36 | 27.69517 | 86.72500 | 10644 ft | 139 kts | 152° |
| 2026-03-25 15:36 | 27.68754 | 86.73076 | 10522 ft | 121 kts | 143° |
| 2026-03-25 15:36 | 27.68133 | 86.73585 | 10519 ft | 103 kts | 154° |
| 2026-03-25 15:37 | 27.67496 | 86.73743 | 10455 ft | 89 kts | 202° |
| 2026-03-25 15:37 | 27.67143 | 86.73176 | 10252 ft | 94 kts | 254° |
| 2026-03-25 15:37 | 27.66825 | 86.72484 | 10008 ft | 105 kts | 238° |
| 2026-03-25 15:37 | 27.66488 | 86.71772 | 9750 ft | 101 kts | 259° |
| 2026-03-25 15:38 | 27.66686 | 86.71106 | 9535 ft | 82 kts | 317° |
| 2026-03-25 15:38 | 27.67136 | 86.70789 | 9418 ft | 72 kts | 339° |
| 2026-03-25 15:38 | 27.67589 | 86.70966 | 9223 ft | 85 kts | 57° |
| 2026-03-25 15:38 | 27.67919 | 86.71548 | 9159 ft | 81 kts | 55° |
| 2026-03-25 15:39 | 27.68199 | 86.72042 | 9183 ft | 71 kts | 60° |
| 2026-03-25 15:39 | 27.68433 | 86.72501 | 9248 ft | 53 kts | 60° |
| 2026-03-25 15:39 | 27.68576 | 86.72740 | 9234 ft | 22 kts | 61° |
| 2026-03-25 15:39 | 27.68644 | 86.72865 | 9307 ft | 22 kts | 52° |
| 2026-03-25 15:40 | 27.68713 | 86.72980 | 9372 ft | 15 kts | 78° |
| 2026-03-25 15:40 | 27.68735 | 86.73052 | 9410 ft | 8 kts | 21° |
| 2026-03-25 15:40 | 27.68776 | 86.73066 | 9411 ft | 2 kts | 68° |
| 2026-03-25 15:40 | 27.68777 | 86.73069 | 9409 ft | 0 kts | 69° |